createdAt,value
2019-04-30T00:00:22.786Z,7.82
2019-04-30T00:01:24.789Z,7.83
2019-04-30T00:02:29.304Z,7.76
2019-04-30T00:03:25.013Z,7.75
2019-04-30T00:04:25.373Z,7.82
2019-04-30T00:05:25.216Z,7.77
2019-04-30T00:06:27.291Z,7.87
2019-04-30T00:07:25.754Z,7.80
2019-04-30T00:08:30.160Z,7.73
2019-04-30T00:09:26.599Z,7.79
2019-04-30T00:10:36.091Z,7.70
2019-04-30T00:11:27.455Z,7.69
2019-04-30T00:12:30.918Z,7.70
2019-04-30T00:13:28.297Z,7.61
2019-04-30T00:14:36.828Z,7.72
2019-04-30T00:15:29.151Z,7.69
2019-04-30T00:16:31.018Z,7.72
2019-04-30T00:17:30.025Z,7.70
2019-04-30T00:18:30.716Z,7.61
2019-04-30T00:19:30.851Z,7.76
2019-04-30T00:20:35.187Z,7.66
2019-04-30T00:21:31.730Z,7.73
2019-04-30T00:22:34.289Z,7.60
2019-04-30T00:23:32.619Z,7.66
2019-04-30T00:24:32.974Z,7.75
2019-04-30T00:25:35.355Z,7.66
2019-04-30T00:26:35.458Z,7.63
2019-04-30T00:27:35.629Z,7.53
2019-04-30T00:28:35.384Z,7.60
2019-04-30T00:29:35.639Z,7.69
2019-04-30T00:30:39.388Z,7.50
2019-04-30T00:31:35.939Z,7.56
2019-04-30T00:32:39.056Z,7.51
2019-04-30T00:33:36.793Z,7.50
2019-04-30T00:34:39.335Z,7.45
2019-04-30T00:35:37.635Z,7.39
2019-04-30T00:36:38.057Z,7.35
2019-04-30T00:37:38.486Z,7.39
2019-04-30T00:38:38.909Z,7.38
2019-04-30T00:39:39.330Z,7.33
2019-04-30T00:40:39.754Z,7.36
2019-04-30T00:41:44.090Z,7.35
2019-04-30T00:42:40.600Z,7.42
2019-04-30T00:43:46.597Z,7.45
2019-04-30T00:44:41.449Z,7.42
2019-04-30T00:45:44.822Z,7.38
2019-04-30T00:46:42.303Z,7.36
2019-04-30T00:47:46.464Z,7.36
2019-04-30T00:48:43.150Z,7.36
2019-04-30T00:49:44.863Z,7.29
2019-04-30T00:50:46.875Z,7.40
2019-04-30T00:51:45.378Z,7.32
2019-04-30T00:52:47.356Z,7.40
2019-04-30T00:53:51.161Z,7.42
2019-04-30T00:54:45.723Z,7.33
2019-04-30T00:55:48.570Z,7.32
2019-04-30T00:56:50.427Z,7.32
2019-04-30T00:57:47.531Z,7.28
2019-04-30T00:58:47.388Z,7.36
2019-04-30T00:59:48.115Z,7.29
2019-04-30T01:00:48.237Z,7.21
2019-04-30T01:01:48.660Z,7.29
2019-04-30T01:02:49.095Z,7.28
2019-04-30T01:03:49.667Z,7.31
2019-04-30T01:04:49.934Z,7.24
2019-04-30T01:05:50.355Z,7.23
2019-04-30T01:06:50.780Z,7.18
2019-04-30T01:07:51.992Z,7.13
2019-04-30T01:08:51.622Z,7.21
2019-04-30T01:09:52.050Z,7.24
2019-04-30T01:10:52.472Z,7.23
2019-04-30T01:11:52.895Z,7.14
2019-04-30T01:12:53.327Z,7.25
2019-04-30T01:13:53.989Z,7.17
2019-04-30T01:14:54.181Z,7.03
2019-04-30T01:15:54.594Z,7.13
2019-04-30T01:16:55.016Z,7.05
2019-04-30T01:17:55.439Z,7.10
2019-04-30T01:18:55.862Z,7.06
2019-04-30T01:19:56.284Z,7.03
2019-04-30T01:20:58.690Z,6.99
2019-04-30T01:21:57.133Z,7.03
2019-04-30T01:22:58.690Z,7.02
2019-04-30T01:23:59.112Z,6.97
2019-04-30T01:25:02.899Z,7.05
2019-04-30T01:25:58.835Z,7.02
2019-04-30T01:27:02.122Z,6.99
2019-04-30T01:27:59.675Z,6.89
2019-04-30T01:29:02.115Z,7.02
2019-04-30T01:30:00.533Z,6.99
2019-04-30T01:31:02.099Z,6.99
2019-04-30T01:32:01.376Z,6.96
2019-04-30T01:33:01.806Z,6.95
2019-04-30T01:34:05.074Z,6.89
2019-04-30T01:35:02.642Z,6.95
2019-04-30T01:36:04.210Z,6.81
2019-04-30T01:37:03.487Z,6.81
2019-04-30T01:38:08.340Z,6.87
2019-04-30T01:39:04.339Z,6.78
2019-04-30T01:40:10.534Z,6.85
2019-04-30T01:41:05.182Z,6.84
2019-04-30T01:42:09.875Z,6.93
2019-04-30T01:43:06.032Z,6.82
2019-04-30T01:44:08.661Z,6.84
2019-04-30T01:45:08.662Z,6.87
2019-04-30T01:46:09.268Z,6.74
2019-04-30T01:47:08.960Z,6.78
2019-04-30T01:48:10.748Z,6.69
2019-04-30T01:49:08.670Z,6.79
2019-04-30T01:50:09.293Z,6.89
2019-04-30T01:51:13.325Z,6.88
2019-04-30T01:52:09.837Z,6.74
2019-04-30T01:53:13.179Z,6.70
2019-04-30T01:54:13.767Z,6.62
2019-04-30T01:55:11.113Z,6.67
2019-04-30T01:56:11.534Z,6.74
2019-04-30T01:57:11.955Z,6.69
2019-04-30T01:58:12.415Z,6.69
2019-04-30T01:59:12.809Z,6.78
2019-04-30T02:00:13.225Z,6.77
2019-04-30T02:01:13.647Z,6.74
2019-04-30T02:02:14.072Z,6.66
2019-04-30T02:03:14.516Z,6.75
2019-04-30T02:04:14.923Z,6.79
2019-04-30T02:05:15.348Z,6.78
2019-04-30T02:06:15.764Z,6.78
2019-04-30T02:07:16.195Z,6.75
2019-04-30T02:08:16.652Z,6.69
2019-04-30T02:09:18.919Z,6.70
2019-04-30T02:10:18.598Z,6.66
2019-04-30T02:11:18.968Z,6.70
2019-04-30T02:12:21.664Z,6.64
2019-04-30T02:13:18.860Z,6.59
2019-04-30T02:14:19.147Z,6.63
2019-04-30T02:15:19.575Z,6.74
2019-04-30T02:16:21.122Z,6.59
2019-04-30T02:17:20.422Z,6.54
2019-04-30T02:18:20.865Z,6.54
2019-04-30T02:19:21.276Z,6.62
2019-04-30T02:20:21.690Z,6.62
2019-04-30T02:21:22.117Z,6.52
2019-04-30T02:22:22.536Z,6.52
2019-04-30T02:23:22.974Z,6.52
2019-04-30T02:24:23.392Z,6.36
2019-04-30T02:25:23.840Z,6.28
2019-04-30T02:26:24.236Z,6.38
2019-04-30T02:27:24.662Z,6.39
2019-04-30T02:28:25.087Z,6.44
2019-04-30T02:29:25.505Z,6.38
2019-04-30T02:30:25.925Z,6.41
2019-04-30T02:31:26.353Z,6.39
2019-04-30T02:32:26.767Z,6.39
2019-04-30T02:33:27.192Z,6.48
2019-04-30T02:34:30.228Z,6.42
2019-04-30T02:35:28.857Z,6.44
2019-04-30T02:36:29.908Z,6.39
2019-04-30T02:37:30.115Z,6.42
2019-04-30T02:38:30.009Z,6.44
2019-04-30T02:39:30.299Z,6.45
2019-04-30T02:40:30.326Z,6.38
2019-04-30T02:41:30.574Z,6.30
2019-04-30T02:42:31.001Z,6.35
2019-04-30T02:43:31.444Z,6.41
2019-04-30T02:44:31.853Z,6.28
2019-04-30T02:45:32.268Z,6.27
2019-04-30T02:46:32.696Z,6.33
2019-04-30T02:47:33.131Z,6.33
2019-04-30T02:48:33.564Z,6.33
2019-04-30T02:49:33.966Z,6.31
2019-04-30T02:50:34.379Z,6.30
2019-04-30T02:51:34.876Z,6.27
2019-04-30T02:52:35.226Z,6.38
2019-04-30T02:53:35.654Z,6.35
2019-04-30T02:54:36.167Z,6.31
2019-04-30T02:55:36.504Z,6.31
2019-04-30T02:56:39.802Z,6.27
2019-04-30T02:57:39.526Z,6.14
2019-04-30T02:58:40.834Z,6.22
2019-04-30T02:59:40.266Z,6.27
2019-04-30T03:00:39.344Z,6.28
2019-04-30T03:01:40.202Z,6.30
2019-04-30T03:02:39.644Z,6.35
2019-04-30T03:03:42.701Z,6.31
2019-04-30T03:04:40.301Z,6.28
2019-04-30T03:05:40.724Z,6.31
2019-04-30T03:06:41.157Z,6.27
2019-04-30T03:07:41.581Z,6.26
2019-04-30T03:08:41.999Z,6.22
2019-04-30T03:09:42.416Z,6.16
2019-04-30T03:10:42.867Z,6.17
2019-04-30T03:11:43.266Z,6.19
2019-04-30T03:12:43.685Z,6.12
2019-04-30T03:13:44.107Z,6.09
2019-04-30T03:14:44.533Z,6.04
2019-04-30T03:15:44.951Z,6.12
2019-04-30T03:16:45.378Z,6.05
2019-04-30T03:17:45.800Z,6.09
2019-04-30T03:18:46.222Z,6.01
2019-04-30T03:19:46.641Z,6.08
2019-04-30T03:20:49.548Z,6.05
2019-04-30T03:21:49.976Z,5.97
2019-04-30T03:22:47.905Z,5.83
2019-04-30T03:23:50.357Z,5.71
2019-04-30T03:24:50.086Z,5.73
2019-04-30T03:25:50.127Z,5.76
2019-04-30T03:26:50.003Z,5.75
2019-04-30T03:27:50.028Z,5.75
2019-04-30T03:28:50.468Z,5.72
2019-04-30T03:29:50.873Z,5.65
2019-04-30T03:30:57.209Z,5.71
2019-04-30T03:31:52.693Z,5.72
2019-04-30T03:32:56.584Z,5.75
2019-04-30T03:33:52.705Z,5.73
2019-04-30T03:34:53.021Z,5.72
2019-04-30T03:35:54.870Z,5.71
2019-04-30T03:36:53.835Z,5.56
2019-04-30T03:37:54.250Z,5.56
2019-04-30T03:38:54.669Z,5.68
2019-04-30T03:39:55.091Z,5.73
2019-04-30T03:40:55.515Z,5.66
2019-04-30T03:41:55.937Z,5.75
2019-04-30T03:42:59.848Z,5.65
2019-04-30T03:44:16.056Z,5.68
2019-04-30T03:44:59.261Z,5.83
2019-04-30T03:45:59.304Z,5.71
2019-04-30T03:46:59.395Z,5.61
2019-04-30T03:48:00.307Z,5.68
2019-04-30T03:49:00.207Z,5.69
2019-04-30T03:49:59.989Z,5.65
2019-04-30T03:51:01.184Z,5.69
2019-04-30T03:52:00.192Z,5.62
2019-04-30T03:53:00.767Z,5.73
2019-04-30T03:54:01.003Z,5.73
2019-04-30T03:55:02.899Z,5.66
2019-04-30T03:56:01.857Z,5.59
2019-04-30T03:57:02.294Z,5.62
2019-04-30T03:58:02.693Z,5.59
2019-04-30T03:59:03.137Z,5.56
2019-04-30T04:00:03.557Z,5.80
2019-04-30T04:01:03.960Z,5.71
2019-04-30T04:02:04.399Z,5.73
2019-04-30T04:03:04.814Z,5.66
2019-04-30T04:04:05.236Z,5.62
2019-04-30T04:05:05.649Z,5.56
2019-04-30T04:06:06.078Z,5.64
2019-04-30T04:07:06.503Z,5.65
2019-04-30T04:08:09.427Z,5.75
2019-04-30T04:09:10.127Z,5.65
2019-04-30T04:10:10.159Z,5.71
2019-04-30T04:11:10.107Z,5.73
2019-04-30T04:12:11.863Z,5.71
2019-04-30T04:13:10.364Z,5.65
2019-04-30T04:14:09.450Z,5.65
2019-04-30T04:15:10.615Z,5.72
2019-04-30T04:16:10.297Z,5.61
2019-04-30T04:17:10.718Z,5.69
2019-04-30T04:18:11.145Z,5.75
2019-04-30T04:19:11.569Z,5.71
2019-04-30T04:20:11.989Z,5.69
2019-04-30T04:21:16.761Z,5.86
2019-04-30T04:22:12.833Z,5.75
2019-04-30T04:23:13.260Z,5.72
2019-04-30T04:24:13.673Z,5.71
2019-04-30T04:25:14.098Z,5.71
2019-04-30T04:26:14.526Z,5.73
2019-04-30T04:27:14.943Z,5.73
2019-04-30T04:28:15.368Z,5.82
2019-04-30T04:29:15.794Z,5.82
2019-04-30T04:30:16.211Z,5.89
2019-04-30T04:31:19.082Z,5.87
2019-04-30T04:32:17.057Z,5.84
2019-04-30T04:33:19.755Z,5.86
2019-04-30T04:34:19.668Z,5.84
2019-04-30T04:35:19.769Z,5.83
2019-04-30T04:36:19.995Z,5.91
2019-04-30T04:37:20.131Z,5.98
2019-04-30T04:38:20.391Z,5.87
2019-04-30T04:39:20.421Z,5.93
2019-04-30T04:40:21.200Z,5.80
2019-04-30T04:41:20.857Z,5.90
2019-04-30T04:42:21.285Z,5.86
2019-04-30T04:43:21.705Z,6.02
2019-04-30T04:44:22.131Z,6.02
2019-04-30T04:45:22.573Z,5.98
2019-04-30T04:46:22.968Z,5.93
2019-04-30T04:47:23.399Z,5.97
2019-04-30T04:48:23.815Z,6.05
2019-04-30T04:49:24.238Z,5.93
2019-04-30T04:50:24.657Z,6.04
2019-04-30T04:51:36.792Z,6.07
2019-04-30T04:52:25.504Z,6.01
2019-04-30T04:53:25.930Z,5.97
2019-04-30T04:54:26.354Z,5.99
2019-04-30T04:55:26.775Z,6.14
2019-04-30T04:56:30.417Z,6.17
2019-04-30T04:57:30.064Z,6.09
2019-04-30T04:58:30.189Z,6.12
2019-04-30T04:59:29.693Z,6.19
2019-04-30T05:00:29.369Z,6.22
2019-04-30T05:01:29.316Z,6.30
2019-04-30T05:02:32.545Z,6.19
2019-04-30T05:03:30.159Z,6.27
2019-04-30T05:04:30.581Z,6.33
2019-04-30T05:05:30.998Z,6.39
2019-04-30T05:06:31.436Z,6.28
2019-04-30T05:07:31.851Z,6.31
2019-04-30T05:08:32.271Z,6.45
2019-04-30T05:09:32.711Z,6.41
2019-04-30T05:10:33.124Z,6.46
2019-04-30T05:11:33.538Z,6.39
2019-04-30T05:12:33.960Z,6.54
2019-04-30T05:13:34.747Z,6.38
2019-04-30T05:14:34.814Z,6.57
2019-04-30T05:15:35.238Z,6.72
2019-04-30T05:16:35.657Z,6.64
2019-04-30T05:17:36.076Z,6.82
2019-04-30T05:18:36.501Z,6.79
2019-04-30T05:19:38.526Z,6.84
2019-04-30T05:20:41.242Z,6.84
2019-04-30T05:21:42.664Z,6.79
2019-04-30T05:22:38.918Z,6.84
2019-04-30T05:23:41.088Z,6.97
2019-04-30T05:24:40.854Z,6.87
2019-04-30T05:25:39.469Z,7.02
2019-04-30T05:26:39.888Z,7.05
2019-04-30T05:27:40.310Z,7.07
2019-04-30T05:28:40.742Z,7.18
2019-04-30T05:29:41.168Z,7.15
2019-04-30T05:30:41.588Z,7.18
2019-04-30T05:31:42.007Z,7.21
2019-04-30T05:32:42.427Z,7.31
2019-04-30T05:33:42.853Z,7.18
2019-04-30T05:34:43.273Z,7.28
2019-04-30T05:35:43.707Z,7.32
2019-04-30T05:36:44.159Z,7.40
2019-04-30T05:37:44.555Z,7.35
2019-04-30T05:38:44.976Z,7.40
2019-04-30T05:39:45.395Z,7.33
2019-04-30T05:40:45.816Z,7.42
2019-04-30T05:41:46.244Z,7.39
2019-04-30T05:42:46.669Z,7.48
2019-04-30T05:43:48.807Z,7.48
2019-04-30T05:44:49.508Z,7.47
2019-04-30T05:45:49.197Z,7.61
2019-04-30T05:46:49.416Z,7.66
2019-04-30T05:47:50.483Z,7.75
2019-04-30T05:48:49.601Z,7.63
2019-04-30T05:49:49.631Z,7.50
2019-04-30T05:50:51.783Z,7.48
2019-04-30T05:51:55.508Z,7.72
2019-04-30T05:52:50.903Z,7.66
2019-04-30T05:53:51.333Z,7.67
2019-04-30T05:54:51.760Z,7.77
2019-04-30T05:55:52.199Z,7.72
2019-04-30T05:56:52.610Z,7.79
2019-04-30T05:57:56.362Z,7.77
2019-04-30T05:58:53.451Z,7.70
2019-04-30T05:59:53.879Z,7.76
2019-04-30T06:00:54.302Z,7.80
2019-04-30T06:01:54.736Z,7.95
2019-04-30T06:02:55.153Z,7.90
2019-04-30T06:03:55.582Z,7.85
2019-04-30T06:04:56.003Z,7.80
2019-04-30T06:05:56.422Z,7.82
2019-04-30T06:06:58.636Z,7.80
2019-04-30T06:07:59.193Z,7.91
2019-04-30T06:09:06.256Z,7.97
2019-04-30T06:09:59.655Z,7.95
2019-04-30T06:10:59.738Z,8.03
2019-04-30T06:11:59.153Z,8.18
2019-04-30T06:12:59.517Z,8.18
2019-04-30T06:13:59.820Z,8.26
2019-04-30T06:15:00.250Z,8.36
2019-04-30T06:16:00.684Z,8.37
2019-04-30T06:17:01.112Z,8.36
2019-04-30T06:18:10.868Z,8.45
2019-04-30T06:19:01.944Z,8.45
2019-04-30T06:20:02.372Z,8.45
2019-04-30T06:21:02.792Z,8.51
2019-04-30T06:22:07.932Z,8.44
2019-04-30T06:23:03.662Z,8.48
2019-04-30T06:24:04.072Z,8.60
2019-04-30T06:25:04.502Z,8.70
2019-04-30T06:26:09.630Z,8.79
2019-04-30T06:27:05.346Z,8.81
2019-04-30T06:28:05.786Z,8.85
2019-04-30T06:29:06.203Z,8.87
2019-04-30T06:30:06.619Z,9.04
2019-04-30T06:31:09.027Z,9.21
2019-04-30T06:32:08.655Z,9.31
2019-04-30T06:33:09.311Z,9.31
2019-04-30T06:34:08.598Z,9.25
2019-04-30T06:35:09.175Z,9.16
2019-04-30T06:36:11.107Z,9.19
2019-04-30T06:37:09.848Z,9.26
2019-04-30T06:38:10.022Z,9.37
2019-04-30T06:39:10.461Z,9.44
2019-04-30T06:40:11.812Z,9.65
2019-04-30T06:41:11.358Z,9.83
2019-04-30T06:42:12.945Z,9.86
2019-04-30T06:43:12.188Z,10.09
2019-04-30T06:44:12.587Z,10.04
2019-04-30T06:45:13.018Z,10.33
2019-04-30T06:46:13.463Z,10.92
2019-04-30T06:47:13.875Z,11.50
2019-04-30T06:48:14.301Z,11.60
2019-04-30T06:49:14.732Z,11.78
2019-04-30T06:50:15.181Z,12.28
2019-04-30T06:51:15.585Z,12.90
2019-04-30T06:52:20.513Z,12.68
2019-04-30T06:53:16.444Z,12.15
2019-04-30T06:54:19.039Z,11.68
2019-04-30T06:55:19.093Z,11.70
2019-04-30T06:56:19.446Z,11.99
2019-04-30T06:57:19.831Z,11.86
2019-04-30T06:58:20.475Z,12.15
2019-04-30T06:59:20.342Z,12.40
2019-04-30T07:00:23.351Z,13.03
2019-04-30T07:01:19.912Z,13.37
2019-04-30T07:02:20.349Z,13.23
2019-04-30T07:03:20.779Z,12.37
2019-04-30T07:04:21.214Z,12.85
2019-04-30T07:05:21.647Z,13.23
2019-04-30T07:06:29.650Z,13.42
2019-04-30T07:07:23.232Z,13.37
2019-04-30T07:08:22.961Z,13.71
2019-04-30T07:09:26.753Z,12.70
2019-04-30T07:10:23.841Z,12.02
2019-04-30T07:11:24.290Z,12.17
2019-04-30T07:12:27.835Z,12.90
2019-04-30T07:13:25.164Z,12.53
2019-04-30T07:14:25.607Z,12.70
2019-04-30T07:15:26.051Z,13.25
2019-04-30T07:16:26.491Z,14.03
2019-04-30T07:17:29.083Z,14.69
2019-04-30T07:18:28.839Z,13.95
2019-04-30T07:19:34.726Z,13.46
2019-04-30T07:20:29.120Z,14.32
2019-04-30T07:21:29.469Z,15.22
2019-04-30T07:22:39.692Z,15.49
2019-04-30T07:23:29.607Z,14.62
2019-04-30T07:24:30.034Z,13.95
2019-04-30T07:25:30.478Z,14.00
2019-04-30T07:26:30.930Z,15.03
2019-04-30T07:27:32.297Z,14.77
2019-04-30T07:28:43.725Z,15.44
2019-04-30T07:29:32.260Z,15.40
2019-04-30T07:30:34.467Z,16.39
2019-04-30T07:31:33.169Z,17.41
2019-04-30T07:32:33.603Z,17.49
2019-04-30T07:33:34.054Z,17.60
2019-04-30T07:34:37.041Z,16.76
2019-04-30T07:35:34.951Z,18.04
2019-04-30T07:36:46.794Z,16.50
2019-04-30T07:37:35.856Z,15.43
2019-04-30T07:38:45.720Z,15.18
2019-04-30T07:39:36.753Z,14.99
2019-04-30T07:40:38.964Z,14.69
2019-04-30T07:41:37.649Z,15.19
2019-04-30T07:42:44.450Z,13.96
2019-04-30T07:43:59.882Z,13.81
2019-04-30T07:47:46.301Z,14.62
2019-04-30T07:48:46.752Z,14.37
2019-04-30T07:50:42.036Z,15.29
2019-04-30T07:51:42.336Z,15.46
2019-04-30T07:53:36.506Z,17.04
2019-04-30T07:54:36.889Z,17.30
2019-04-30T07:56:37.320Z,17.49
2019-04-30T07:57:32.477Z,16.46
2019-04-30T07:59:30.032Z,16.57
2019-04-30T08:00:30.993Z,17.14
2019-04-30T08:02:24.603Z,17.29
2019-04-30T08:03:24.469Z,17.64
2019-04-30T08:05:19.867Z,17.76
2019-04-30T08:06:22.058Z,18.83
2019-04-30T08:08:21.226Z,20.28
2019-04-30T08:09:14.272Z,19.00
2019-04-30T08:11:09.369Z,20.07
2019-04-30T08:12:10.460Z,21.50
2019-04-30T08:14:04.418Z,20.03
2019-04-30T08:15:04.499Z,18.88
2019-04-30T08:16:59.147Z,17.64
2019-04-30T08:18:03.621Z,17.70
2019-04-30T08:19:54.226Z,19.96
2019-04-30T08:20:54.671Z,19.47
2019-04-30T08:22:50.322Z,18.89
2019-04-30T08:23:50.737Z,20.62
2019-04-30T08:25:45.713Z,21.57
2019-04-30T08:26:45.852Z,21.72
2019-04-30T08:28:40.532Z,21.60
2019-04-30T08:29:40.951Z,23.06
2019-04-30T08:31:35.576Z,21.69
2019-04-30T08:32:36.042Z,22.25
2019-04-30T08:34:30.699Z,22.26
2019-04-30T08:35:31.160Z,22.36
2019-04-30T08:37:25.799Z,22.26
2019-04-30T08:38:26.285Z,21.40
2019-04-30T08:40:21.099Z,23.74
2019-04-30T08:41:21.544Z,22.73
2019-04-30T08:43:16.226Z,25.53
2019-04-30T08:44:16.646Z,25.73
2019-04-30T08:46:11.286Z,22.69
2019-04-30T08:47:11.742Z,22.62
2019-04-30T08:49:09.216Z,24.14
2019-04-30T08:50:09.794Z,25.41
2019-04-30T08:52:02.454Z,25.50
2019-04-30T08:53:02.912Z,26.10
2019-04-30T08:55:11.134Z,23.62
2019-04-30T08:55:59.171Z,24.91
2019-04-30T08:57:52.704Z,25.91
2019-04-30T08:58:54.879Z,25.99
2019-04-30T09:00:48.629Z,26.73
2019-04-30T09:01:48.754Z,26.51
2019-04-30T09:03:42.942Z,27.82
2019-04-30T09:04:43.405Z,24.77
2019-04-30T09:06:38.978Z,21.45
2019-04-30T09:07:38.762Z,21.15
2019-04-30T09:08:40.032Z,22.76
2019-04-30T09:09:39.501Z,24.35
2019-04-30T09:10:39.948Z,24.78
2019-04-30T09:11:51.632Z,26.56
2019-04-30T09:12:40.878Z,25.53
2019-04-30T09:13:41.341Z,25.63
2019-04-30T09:14:41.825Z,26.99
2019-04-30T09:15:42.273Z,25.98
2019-04-30T09:16:42.772Z,26.53
2019-04-30T09:17:43.237Z,25.98
2019-04-30T09:18:43.682Z,25.93
2019-04-30T09:19:44.148Z,26.31
2019-04-30T09:20:44.621Z,26.90
2019-04-30T09:21:45.090Z,27.86
2019-04-30T09:22:45.558Z,26.74
2019-04-30T09:23:50.533Z,26.93
2019-04-30T09:24:46.476Z,27.39
2019-04-30T09:25:46.950Z,26.22
2019-04-30T09:26:49.317Z,26.84
2019-04-30T09:27:48.819Z,26.52
2019-04-30T09:28:49.414Z,25.47
2019-04-30T09:29:49.224Z,26.16
2019-04-30T09:30:50.292Z,25.77
2019-04-30T09:31:49.761Z,26.80
2019-04-30T09:32:50.233Z,28.26
2019-04-30T09:33:50.695Z,27.35
2019-04-30T09:34:51.163Z,25.28
2019-04-30T09:35:51.653Z,23.44
2019-04-30T09:36:52.110Z,22.83
2019-04-30T09:37:58.999Z,22.54
2019-04-30T09:38:53.040Z,24.47
2019-04-30T09:39:53.513Z,23.40
2019-04-30T09:40:53.987Z,22.55
2019-04-30T09:41:54.446Z,23.03
2019-04-30T09:42:54.911Z,23.08
2019-04-30T09:43:55.393Z,21.80
2019-04-30T09:44:59.086Z,20.18
2019-04-30T09:45:56.318Z,19.63
2019-04-30T09:46:58.711Z,22.65
2019-04-30T09:47:59.124Z,24.84
2019-04-30T09:48:59.682Z,23.54
2019-04-30T09:49:59.678Z,24.74
2019-04-30T09:51:00.811Z,27.22
2019-04-30T09:51:59.705Z,28.69
2019-04-30T09:53:00.574Z,27.58
2019-04-30T09:54:03.299Z,28.60
2019-04-30T09:55:00.958Z,28.12
2019-04-30T09:56:01.016Z,25.68
2019-04-30T09:57:01.479Z,25.48
2019-04-30T09:58:13.984Z,24.23
2019-04-30T09:59:02.415Z,25.11
2019-04-30T10:00:02.895Z,24.17
2019-04-30T10:01:03.362Z,24.03
2019-04-30T10:02:03.850Z,26.51
2019-04-30T10:03:04.444Z,28.49
2019-04-30T10:04:05.196Z,29.24
2019-04-30T10:05:05.737Z,29.50
2019-04-30T10:06:05.706Z,23.91
2019-04-30T10:07:06.164Z,20.70
2019-04-30T10:08:06.637Z,22.60
2019-04-30T10:09:07.106Z,23.71
2019-04-30T10:10:09.525Z,25.06
2019-04-30T10:11:09.742Z,26.52
2019-04-30T10:12:09.666Z,27.00
2019-04-30T10:13:09.034Z,26.80
2019-04-30T10:14:09.454Z,28.49
2019-04-30T10:15:09.923Z,27.95
2019-04-30T10:16:10.390Z,27.29
2019-04-30T10:17:10.870Z,23.87
2019-04-30T10:18:11.329Z,23.00
2019-04-30T10:19:11.824Z,24.50
2019-04-30T10:20:12.267Z,27.00
2019-04-30T10:21:12.743Z,26.34
2019-04-30T10:22:13.208Z,27.26
2019-04-30T10:23:13.681Z,27.68
2019-04-30T10:24:15.735Z,28.84
2019-04-30T10:25:14.627Z,28.08
2019-04-30T10:26:15.096Z,28.15
2019-04-30T10:27:15.567Z,28.23
2019-04-30T10:28:16.047Z,26.88
2019-04-30T10:29:16.514Z,27.90
2019-04-30T10:30:16.985Z,28.59
2019-04-30T10:31:18.749Z,29.23
2019-04-30T10:32:18.693Z,30.28
2019-04-30T10:33:19.606Z,29.66
2019-04-30T10:34:18.867Z,31.40
2019-04-30T10:35:20.376Z,32.45
2019-04-30T10:36:19.805Z,30.99
2019-04-30T10:37:20.279Z,27.80
2019-04-30T10:38:20.760Z,23.71
2019-04-30T10:39:21.696Z,21.24
2019-04-30T10:40:21.701Z,21.29
2019-04-30T10:41:22.173Z,23.73
2019-04-30T10:42:22.643Z,23.98
2019-04-30T10:43:23.108Z,24.91
2019-04-30T10:44:23.589Z,25.73
2019-04-30T10:45:24.049Z,27.83
2019-04-30T10:46:24.535Z,25.53
2019-04-30T10:47:25.004Z,23.32
2019-04-30T10:48:25.499Z,25.95
2019-04-30T10:49:25.983Z,26.18
2019-04-30T10:50:26.421Z,26.38
2019-04-30T10:51:28.753Z,28.12
2019-04-30T10:52:29.176Z,27.60
2019-04-30T10:53:27.832Z,26.33
2019-04-30T10:54:28.973Z,26.36
2019-04-30T10:55:31.147Z,25.93
2019-04-30T10:56:29.252Z,26.22
2019-04-30T10:57:29.706Z,27.21
2019-04-30T10:58:30.185Z,27.55
2019-04-30T10:59:30.673Z,28.62
2019-04-30T11:00:31.131Z,27.93
2019-04-30T11:01:31.639Z,28.19
2019-04-30T11:02:32.087Z,26.77
2019-04-30T11:03:32.531Z,26.15
2019-04-30T11:04:33.013Z,27.60
2019-04-30T11:05:33.469Z,28.74
2019-04-30T11:06:33.948Z,25.51
2019-04-30T11:07:34.423Z,24.45
2019-04-30T11:08:34.887Z,25.95
2019-04-30T11:09:35.370Z,25.78
2019-04-30T11:10:35.828Z,27.58
2019-04-30T11:11:36.310Z,28.79
2019-04-30T11:12:36.771Z,26.43
2019-04-30T11:13:37.259Z,27.26
2019-04-30T11:14:37.720Z,22.41
2019-04-30T11:15:39.428Z,22.88
2019-04-30T11:16:38.668Z,25.26
2019-04-30T11:17:39.710Z,25.73
2019-04-30T11:18:39.783Z,23.93
2019-04-30T11:19:40.204Z,23.59
2019-04-30T11:20:40.732Z,23.40
2019-04-30T11:21:41.093Z,24.98
2019-04-30T11:22:41.673Z,26.68
2019-04-30T11:23:42.183Z,28.19
2019-04-30T11:24:56.730Z,26.66
2019-04-30T11:25:43.424Z,26.06
2019-04-30T11:26:44.018Z,26.71
2019-04-30T11:27:44.339Z,26.96
2019-04-30T11:28:44.506Z,27.65
2019-04-30T11:29:44.980Z,28.17
2019-04-30T11:30:45.399Z,26.74
2019-04-30T11:31:45.947Z,28.79
2019-04-30T11:32:46.337Z,29.10
2019-04-30T11:33:47.011Z,29.23
2019-04-30T11:34:47.130Z,28.05
2019-04-30T11:35:49.264Z,28.78
2019-04-30T11:36:48.073Z,27.29
2019-04-30T11:37:48.541Z,23.83
2019-04-30T11:38:49.009Z,23.24
2019-04-30T11:39:49.476Z,22.99
2019-04-30T11:40:49.935Z,22.14
2019-04-30T11:41:50.413Z,22.55
2019-04-30T11:42:50.870Z,21.55
2019-04-30T11:43:51.339Z,20.77
2019-04-30T11:44:51.791Z,20.77
2019-04-30T11:45:52.256Z,20.70
2019-04-30T11:46:52.696Z,20.47
2019-04-30T11:47:53.774Z,19.48
2019-04-30T11:48:53.624Z,18.89
2019-04-30T11:49:54.066Z,18.78
2019-04-30T11:50:54.521Z,18.66
2019-04-30T11:51:54.972Z,19.14
2019-04-30T11:53:09.622Z,18.71
2019-04-30T11:53:55.878Z,19.16
2019-04-30T11:54:56.329Z,19.34
2019-04-30T11:55:56.767Z,19.79
2019-04-30T11:56:58.849Z,19.62
2019-04-30T11:57:59.213Z,19.22
2019-04-30T11:58:58.867Z,19.22
2019-04-30T11:59:58.577Z,19.52
2019-04-30T12:00:59.267Z,19.51
2019-04-30T12:01:59.456Z,19.45
2019-04-30T12:02:59.902Z,19.31
2019-04-30T12:04:00.343Z,18.95
2019-04-30T12:05:00.803Z,19.18
2019-04-30T12:06:01.242Z,19.18
2019-04-30T12:07:01.680Z,19.12
2019-04-30T12:08:02.121Z,19.33
2019-04-30T12:09:02.570Z,19.26
2019-04-30T12:10:03.013Z,19.39
2019-04-30T12:11:03.458Z,19.37
2019-04-30T12:12:03.904Z,19.33
2019-04-30T12:13:04.408Z,19.11
2019-04-30T12:14:04.777Z,19.11
2019-04-30T12:15:05.215Z,19.12
2019-04-30T12:16:05.663Z,19.15
2019-04-30T12:17:06.120Z,18.86
2019-04-30T12:18:06.577Z,18.19
2019-04-30T12:19:08.915Z,18.60
2019-04-30T12:20:08.632Z,18.73
2019-04-30T12:21:07.878Z,18.86
2019-04-30T12:22:08.347Z,18.47
2019-04-30T12:23:11.749Z,18.41
2019-04-30T12:24:09.199Z,18.26
2019-04-30T12:25:10.128Z,18.04
2019-04-30T12:26:10.081Z,18.26
2019-04-30T12:27:10.524Z,18.29
2019-04-30T12:28:10.961Z,18.45
2019-04-30T12:29:11.403Z,18.47
2019-04-30T12:30:11.872Z,18.59
2019-04-30T12:31:12.294Z,18.89
2019-04-30T12:32:12.737Z,18.71
2019-04-30T12:33:13.162Z,18.83
2019-04-30T12:34:13.607Z,18.84
2019-04-30T12:35:14.073Z,18.80
2019-04-30T12:36:15.486Z,18.88
2019-04-30T12:37:14.963Z,18.93
2019-04-30T12:38:15.386Z,18.92
2019-04-30T12:39:15.886Z,18.86
2019-04-30T12:40:26.715Z,18.66
2019-04-30T12:41:16.698Z,18.70
2019-04-30T12:42:18.843Z,18.84
2019-04-30T12:44:18.022Z,19.02
2019-04-30T12:45:19.438Z,18.58
2019-04-30T12:46:21.230Z,18.86
2019-04-30T12:47:21.732Z,18.90
2019-04-30T12:48:20.347Z,19.12
2019-04-30T12:49:20.238Z,18.88
2019-04-30T12:50:41.854Z,19.04
2019-04-30T12:51:21.122Z,19.00
2019-04-30T12:52:21.580Z,19.19
2019-04-30T12:53:22.015Z,19.15
2019-04-30T12:54:22.478Z,18.80
2019-04-30T12:55:22.859Z,18.88
2019-04-30T12:56:44.479Z,18.05
2019-04-30T12:57:23.733Z,18.38
2019-04-30T12:58:24.165Z,18.68
2019-04-30T12:59:24.618Z,18.77
2019-04-30T13:00:25.083Z,18.84
2019-04-30T13:01:25.486Z,18.93
2019-04-30T13:02:47.150Z,19.07
2019-04-30T13:03:28.387Z,18.88
2019-04-30T13:04:26.838Z,19.07
2019-04-30T13:05:27.237Z,19.24
2019-04-30T13:06:28.345Z,19.24
2019-04-30T13:07:30.357Z,19.22
2019-04-30T13:08:52.238Z,19.33
2019-04-30T13:09:30.062Z,19.33
2019-04-30T13:10:29.916Z,19.30
2019-04-30T13:11:30.764Z,19.15
2019-04-30T13:12:30.674Z,19.33
2019-04-30T13:13:32.107Z,18.96
2019-04-30T13:14:54.699Z,18.93
2019-04-30T13:15:31.680Z,19.04
2019-04-30T13:16:32.071Z,18.99
2019-04-30T13:17:32.509Z,19.04
2019-04-30T13:18:32.952Z,18.60
2019-04-30T13:19:33.391Z,18.52
2019-04-30T13:20:55.099Z,18.62
2019-04-30T13:21:34.273Z,18.68
2019-04-30T13:22:34.726Z,18.71
2019-04-30T13:23:35.142Z,18.96
2019-04-30T13:24:35.624Z,19.08
2019-04-30T13:25:48.010Z,19.16
2019-04-30T13:26:59.395Z,19.11
2019-04-30T13:27:36.944Z,19.31
2019-04-30T13:28:37.433Z,19.22
2019-04-30T13:29:37.789Z,19.37
2019-04-30T13:30:39.579Z,19.31
2019-04-30T13:31:40.278Z,19.30
2019-04-30T13:33:00.297Z,19.36
2019-04-30T13:33:39.708Z,19.47
2019-04-30T13:34:39.988Z,19.39
2019-04-30T13:35:40.429Z,19.48
2019-04-30T13:36:40.914Z,19.49
2019-04-30T13:37:41.362Z,19.55
2019-04-30T13:39:02.969Z,19.64
2019-04-30T13:39:52.241Z,19.74